Pagrindinis puslapis
METAR-TAF:

METAR-TAF

Oro uostai :

Noršiopingas, Švedija

platuma: 58-35N, ilguma: 016-09E, Aukštis: 34 m

Dabartinis oras

Ataskaita buvo paskelbta 36 minutes, ne 05:50 UTC
Vėjas 4 kt iš Vakarų/Šiaurės Vakarų
Temperatūra 3°C
Drėgmė 65%
Slėgis 1024 hPa
Matomumas 10 km arba daugiau

METAR: ESSP 100550Z AUTO 29004KT 9999 NCD 03/M03 Q1024

Laikas: 08:26 (06:26 UTC)

Prognozė

Ataskaita buvo paskelbta 15 valandos ir 56 minutes, ne 14:30 UTC
Prognozė galioja nuo 09 metu 15 UTC su 09 metu 17 UTC
Vėjas 12 kt iš Šiaurės/Šiaurės Vakarų
Matomumas 10 km arba daugiau
nėra debesų žemiau 1500 m ir nėra kamuolinių lietaus debesų

TAF: ESSP 091430Z 0915/0917 34012KT CAVOK

Orai ataskaitas ir orų prognozės (METAR, TAF).

turimą stotys yra geltonos ir raudonos taškus žemėlapyje.

Perkelti pele per norėdami pamatyti stoties vardą.

Tada spustelėkite, norėdami matyti oro stebėjimo ir prognozės.

Norėdami pakeisti žemėlapį: spustelėkite ant žalios mygtukų su juodo kryžiaus žemyn,; žalią mygtuką su brūkšneliu, jei norite nutolinti; arba žalių rodyklių gretimoms žemėlapius.


METAR-TAF: